Terminal Aerodrome Forecast
Issued by NWS

Home | Current Version | Previous Version | Text Only | Print | Product List | Glossary On
Versions: 1 2 3 4 5 6 7 8 9 10 11 12 13 14
122
FTUS44 KOUN 221133
TAFPNC
TAF
KPNC 221133Z 2212/2312 10004KT 5SM -RA BR OVC035
     FM221500 11006KT 6SM BR VCSH FEW009 BKN015
     FM221700 12007KT 6SM BR FEW009 BKN015
     FM231000 13009KT P6SM VCTS OVC007CB=

USA.gov is the U.S. government's official web portal to all federal, state and local government web resources and services.